createdAt,value
2016-03-14T00:00:34.323Z,1.71
2016-03-14T00:01:34.311Z,1.76
2016-03-14T00:02:34.235Z,1.79
2016-03-14T00:03:34.237Z,1.65
2016-03-14T00:04:34.178Z,1.8
2016-03-14T00:05:34.150Z,1.72
2016-03-14T00:06:34.105Z,1.76
2016-03-14T00:07:34.092Z,1.73
2016-03-14T00:08:34.033Z,1.73
2016-03-14T00:09:34.020Z,1.75
2016-03-14T00:10:33.991Z,1.65
2016-03-14T00:11:33.791Z,1.71
2016-03-14T00:12:33.919Z,1.64
2016-03-14T00:13:33.858Z,1.71
2016-03-14T00:14:33.846Z,1.51
2016-03-14T00:15:33.802Z,1.57
2016-03-14T00:16:33.757Z,1.6
2016-03-14T00:17:33.730Z,1.6
2016-03-14T00:18:33.700Z,1.62
2016-03-14T00:19:33.672Z,1.65
2016-03-14T00:20:33.643Z,1.68
2016-03-14T00:21:33.568Z,1.65
2016-03-14T00:22:33.554Z,1.64
2016-03-14T00:23:33.526Z,1.58
2016-03-14T00:24:33.513Z,1.55
2016-03-14T00:25:33.437Z,1.6
2016-03-14T00:26:33.424Z,1.55
2016-03-14T00:27:33.365Z,1.58
2016-03-14T00:28:33.352Z,1.61
2016-03-14T00:29:33.307Z,1.61
2016-03-14T00:30:33.279Z,1.61
2016-03-14T00:31:33.235Z,1.61
2016-03-14T00:32:33.206Z,1.58
2016-03-14T00:33:33.162Z,1.51
2016-03-14T00:34:33.134Z,1.58
2016-03-14T00:35:33.089Z,1.57
2016-03-14T00:36:33.077Z,1.42
2016-03-14T00:37:33.064Z,1.5
2016-03-14T00:38:32.989Z,1.5
2016-03-14T00:39:32.991Z,1.5
2016-03-14T00:40:32.916Z,1.47
2016-03-14T00:41:32.886Z,1.46
2016-03-14T00:42:32.842Z,1.51
2016-03-14T00:43:32.814Z,1.44
2016-03-14T00:44:32.770Z,1.4
2016-03-14T00:45:32.741Z,1.42
2016-03-14T00:46:32.713Z,1.47
2016-03-14T00:47:32.685Z,1.43
2016-03-14T00:48:32.640Z,1.47
2016-03-14T00:49:32.611Z,1.5
2016-03-14T00:50:32.568Z,1.44
2016-03-14T00:51:32.538Z,1.46
2016-03-14T00:52:32.494Z,1.46
2016-03-14T00:53:32.451Z,1.44
2016-03-14T00:54:32.437Z,1.46
2016-03-14T00:55:32.393Z,1.5
2016-03-14T00:56:32.349Z,1.51
2016-03-14T00:57:32.321Z,1.5
2016-03-14T00:58:32.280Z,1.55
2016-03-14T00:59:32.249Z,1.61
2016-03-14T01:00:32.220Z,1.62
2016-03-14T01:01:32.368Z,1.65
2016-03-14T01:02:32.141Z,1.6
2016-03-14T01:03:32.097Z,1.62
2016-03-14T01:04:32.067Z,1.62
2016-03-14T01:05:32.039Z,1.61
2016-03-14T01:06:32.011Z,1.58
2016-03-14T01:07:31.982Z,1.57
2016-03-14T01:08:31.939Z,1.62
2016-03-14T01:09:31.941Z,1.55
2016-03-14T01:10:31.866Z,1.57
2016-03-14T01:11:31.836Z,1.55
2016-03-14T01:12:31.793Z,1.62
2016-03-14T01:13:31.764Z,1.61
2016-03-14T01:14:31.719Z,1.58
2016-03-14T01:15:31.676Z,1.55
2016-03-14T01:16:31.662Z,1.64
2016-03-14T01:17:31.618Z,1.65
2016-03-14T01:18:31.591Z,1.55
2016-03-14T01:19:31.546Z,1.6
2016-03-14T01:20:31.517Z,1.61
2016-03-14T01:21:31.473Z,1.61
2016-03-14T01:22:31.429Z,1.54
2016-03-14T01:23:31.415Z,1.47
2016-03-14T01:24:31.371Z,1.51
2016-03-14T01:25:31.328Z,1.46
2016-03-14T01:26:31.314Z,1.46
2016-03-14T01:27:31.270Z,1.51
2016-03-14T01:28:31.242Z,1.4
2016-03-14T01:29:31.182Z,1.46
2016-03-14T01:30:31.170Z,1.44
2016-03-14T01:31:31.125Z,1.47
2016-03-14T01:32:31.097Z,1.4
2016-03-14T01:33:31.052Z,1.32
2016-03-14T01:34:31.023Z,1.37
2016-03-14T01:35:30.980Z,1.37
2016-03-14T01:36:30.950Z,1.34
2016-03-14T01:37:31.047Z,1.34
2016-03-14T01:38:30.878Z,1.33
2016-03-14T01:39:30.834Z,1.29
2016-03-14T01:40:30.805Z,1.28
2016-03-14T01:41:30.792Z,1.24
2016-03-14T01:42:30.733Z,1.28
2016-03-14T01:43:30.719Z,1.29
2016-03-14T01:44:29.941Z,1.26
2016-03-14T01:45:30.647Z,1.21
2016-03-14T01:46:30.602Z,1.26
2016-03-14T01:47:30.558Z,1.24
2016-03-14T01:48:30.515Z,1.22
2016-03-14T01:49:30.485Z,1.24
2016-03-14T01:50:30.441Z,1.25
2016-03-14T01:51:30.444Z,1.25
2016-03-14T01:52:30.384Z,1.28
2016-03-14T01:53:30.356Z,1.22
2016-03-14T01:54:30.311Z,1.25
2016-03-14T01:55:30.268Z,1.21
2016-03-14T01:56:30.239Z,1.26
2016-03-14T01:57:30.210Z,1.21
2016-03-14T01:58:30.167Z,1.18
2016-03-14T01:59:30.153Z,1.15
2016-03-14T02:00:30.093Z,1.16
2016-03-14T02:01:30.081Z,1.1
2016-03-14T02:02:30.020Z,1.15
2016-03-14T02:03:29.992Z,1.15
2016-03-14T02:04:29.948Z,1.14
2016-03-14T02:05:29.779Z,1.06
2016-03-14T02:06:29.891Z,1.1
2016-03-14T02:07:29.862Z,1.08
2016-03-14T02:08:29.819Z,1.03
2016-03-14T02:09:29.789Z,1.03
2016-03-14T02:10:29.589Z,0.98
2016-03-14T02:11:29.733Z,1
2016-03-14T02:12:29.516Z,1.04
2016-03-14T02:13:29.644Z,1.01
2016-03-14T02:14:29.600Z,1.06
2016-03-14T02:15:29.571Z,1
2016-03-14T02:16:29.543Z,0.98
2016-03-14T02:17:29.514Z,1.06
2016-03-14T02:18:29.501Z,0.97
2016-03-14T02:19:29.426Z,0.98
2016-03-14T02:20:29.397Z,0.97
2016-03-14T02:21:29.353Z,0.89
2016-03-14T02:22:29.340Z,0.88
2016-03-14T02:23:29.295Z,0.89
2016-03-14T02:24:29.268Z,0.86
2016-03-14T02:25:29.223Z,0.86
2016-03-14T02:26:29.179Z,0.8
2016-03-14T02:27:29.151Z,0.85
2016-03-14T02:28:29.137Z,0.71
2016-03-14T02:29:29.078Z,0.82
2016-03-14T02:30:29.049Z,0.76
2016-03-14T02:31:29.005Z,0.79
2016-03-14T02:32:28.992Z,0.71
2016-03-14T02:33:28.931Z,0.76
2016-03-14T02:34:28.904Z,0.67
2016-03-14T02:35:28.859Z,0.65
2016-03-14T02:36:28.815Z,0.6
2016-03-14T02:37:28.818Z,0.57
2016-03-14T02:38:28.758Z,0.49
2016-03-14T02:39:28.745Z,0.46
2016-03-14T02:40:28.686Z,0.41
2016-03-14T02:41:28.657Z,0.52
2016-03-14T02:42:28.627Z,0.48
2016-03-14T02:43:28.569Z,0.46
2016-03-14T02:44:28.555Z,0.46
2016-03-14T02:45:28.496Z,0.48
2016-03-14T02:46:28.483Z,0.38
2016-03-14T02:47:28.423Z,0.34
2016-03-14T02:48:28.433Z,0.31
2016-03-14T02:49:28.330Z,0.36
2016-03-14T02:50:28.304Z,0.33
2016-03-14T02:51:28.231Z,0.3
2016-03-14T02:52:28.222Z,0.31
2016-03-14T02:53:27.998Z,0.24
2016-03-14T02:54:28.137Z,0.25
2016-03-14T02:55:28.072Z,0.3
2016-03-14T02:56:28.039Z,0.24
2016-03-14T02:57:28.022Z,0.21
2016-03-14T02:58:27.943Z,0.23
2016-03-14T02:59:27.944Z,0.18
2016-03-14T03:00:27.868Z,0.15
2016-03-14T03:01:27.853Z,0.16
2016-03-14T03:02:27.791Z,0.12
2016-03-14T03:03:27.762Z,0.09
2016-03-14T03:04:27.717Z,0.07
2016-03-14T03:05:27.687Z,0.1
2016-03-14T03:06:27.658Z,0.02
2016-03-14T03:07:27.614Z,-0.05
2016-03-14T03:08:27.585Z,0.05
2016-03-14T03:09:27.541Z,0
2016-03-14T03:10:27.512Z,0.05
2016-03-14T03:11:27.483Z,-0.08
2016-03-14T03:12:27.438Z,0.02
2016-03-14T03:13:27.396Z,-0.09
2016-03-14T03:14:27.366Z,0.05
2016-03-14T03:15:27.322Z,-0.01
2016-03-14T03:16:27.278Z,-0.09
2016-03-14T03:17:27.250Z,-0.04
2016-03-14T03:18:27.205Z,-0.11
2016-03-14T03:19:27.177Z,-0.09
2016-03-14T03:20:27.132Z,-0.11
2016-03-14T03:21:27.120Z,-0.15
2016-03-14T03:22:27.059Z,-0.15
2016-03-14T03:23:27.031Z,-0.19
2016-03-14T03:24:27.003Z,-0.24
2016-03-14T03:25:26.974Z,-0.22
2016-03-14T03:26:26.930Z,-0.16
2016-03-14T03:27:26.901Z,-0.19
2016-03-14T03:28:26.856Z,-0.37
2016-03-14T03:29:26.828Z,-0.33
2016-03-14T03:30:26.784Z,-0.36
2016-03-14T03:31:26.740Z,-0.3
2016-03-14T03:32:26.712Z,-0.24
2016-03-14T03:33:26.667Z,-0.22
2016-03-14T03:34:26.623Z,-0.24
2016-03-14T03:35:26.595Z,-0.19
2016-03-14T03:36:26.567Z,-0.23
2016-03-14T03:37:26.506Z,-0.27
2016-03-14T03:38:26.478Z,-0.23
2016-03-14T03:39:26.449Z,-0.27
2016-03-14T03:40:26.343Z,-0.22
2016-03-14T03:41:26.377Z,-0.16
2016-03-14T03:42:26.333Z,-0.24
2016-03-14T03:43:26.304Z,-0.29
2016-03-14T03:44:26.260Z,-0.29
2016-03-14T03:45:26.231Z,-0.33
2016-03-14T03:46:26.187Z,-0.26
2016-03-14T03:47:26.157Z,-0.36
2016-03-14T03:48:26.130Z,-0.31
2016-03-14T03:49:26.085Z,-0.3
2016-03-14T03:50:26.073Z,-0.36
2016-03-14T03:51:26.028Z,-0.3
2016-03-14T03:52:25.985Z,-0.31
2016-03-14T03:53:25.940Z,-0.3
2016-03-14T03:54:25.896Z,-0.24
2016-03-14T03:55:25.789Z,-0.39
2016-03-14T03:56:25.823Z,-0.33
2016-03-14T03:57:25.794Z,-0.29
2016-03-14T03:58:25.750Z,-0.34
2016-03-14T03:59:25.706Z,-0.44
2016-03-14T04:00:25.678Z,-0.26
2016-03-14T04:01:25.649Z,-0.31
2016-03-14T04:02:25.605Z,-0.31
2016-03-14T04:03:25.575Z,-0.37
2016-03-14T04:04:25.532Z,-0.34
2016-03-14T04:05:25.503Z,-0.47
2016-03-14T04:06:25.459Z,-0.36
2016-03-14T04:07:25.430Z,-0.47
2016-03-14T04:08:25.386Z,-0.3
2016-03-14T04:09:25.358Z,-0.36
2016-03-14T04:10:25.330Z,-0.47
2016-03-14T04:11:25.286Z,-0.51
2016-03-14T04:12:25.225Z,-0.6
2016-03-14T04:13:25.196Z,-0.5
2016-03-14T04:14:25.168Z,-0.47
2016-03-14T04:15:25.124Z,-0.5
2016-03-14T04:16:25.096Z,-0.55
2016-03-14T04:17:25.052Z,-0.6
2016-03-14T04:18:25.039Z,-0.55
2016-03-14T04:19:24.822Z,-0.57
2016-03-14T04:20:24.950Z,-0.6
2016-03-14T04:21:24.906Z,-0.55
2016-03-14T04:22:24.877Z,-0.62
2016-03-14T04:23:24.834Z,-0.55
2016-03-14T04:24:24.790Z,-0.55
2016-03-14T04:25:24.760Z,-0.63
2016-03-14T04:26:24.717Z,-0.63
2016-03-14T04:27:24.688Z,-0.6
2016-03-14T04:28:24.660Z,-0.62
2016-03-14T04:29:24.615Z,-0.78
2016-03-14T04:30:24.603Z,-0.73
2016-03-14T04:31:24.542Z,-0.81
2016-03-14T04:32:24.498Z,-0.84
2016-03-14T04:33:24.470Z,-0.84
2016-03-14T04:34:24.442Z,-0.8
2016-03-14T04:35:24.397Z,-0.84
2016-03-14T04:36:24.369Z,-0.78
2016-03-14T04:37:24.308Z,-0.75
2016-03-14T04:38:24.280Z,-0.86
2016-03-14T04:39:24.236Z,-0.84
2016-03-14T04:40:24.223Z,-0.87
2016-03-14T04:41:24.178Z,-0.92
2016-03-14T04:42:24.135Z,-0.94
2016-03-14T04:43:24.090Z,-0.91
2016-03-14T04:44:24.078Z,-0.94
2016-03-14T04:45:24.018Z,-0.97
2016-03-14T04:46:24.005Z,-0.94
2016-03-14T04:47:23.960Z,-0.97
2016-03-14T04:48:23.932Z,-0.99
2016-03-14T04:49:23.871Z,-1.05
2016-03-14T04:50:23.843Z,-1.07
2016-03-14T04:51:23.799Z,-1.06
2016-03-14T04:52:23.771Z,-1.06
2016-03-14T04:53:23.726Z,-1.13
2016-03-14T04:54:23.682Z,-1.15
2016-03-14T04:55:23.654Z,-1.07
2016-03-14T04:56:23.625Z,-1.13
2016-03-14T04:57:23.581Z,-1.13
2016-03-14T04:58:23.537Z,-1.09
2016-03-14T04:59:23.523Z,-1.18
2016-03-14T05:00:23.464Z,-1.18
2016-03-14T05:01:23.436Z,-1.21
2016-03-14T05:02:23.392Z,-1.2
2016-03-14T05:03:23.363Z,-1.38
2016-03-14T05:04:23.319Z,-1.36
2016-03-14T05:05:23.290Z,-1.28
2016-03-14T05:06:23.230Z,-1.33
2016-03-14T05:07:23.202Z,-1.35
2016-03-14T05:08:23.189Z,-1.36
2016-03-14T05:09:23.114Z,-1.38
2016-03-14T05:10:23.116Z,-1.42
2016-03-14T05:11:23.056Z,-1.42
2016-03-14T05:12:23.043Z,-1.48
2016-03-14T05:13:22.983Z,-1.46
2016-03-14T05:14:22.971Z,-1.39
2016-03-14T05:15:22.911Z,-1.43
2016-03-14T05:16:22.882Z,-1.46
2016-03-14T05:17:22.838Z,-1.42
2016-03-14T05:18:22.809Z,-1.41
2016-03-14T05:19:22.766Z,-1.43
2016-03-14T05:20:22.737Z,-1.43
2016-03-14T05:21:22.693Z,-1.43
2016-03-14T05:22:22.648Z,-1.51
2016-03-14T05:23:22.620Z,-1.51
2016-03-14T05:24:22.575Z,-1.51
2016-03-14T05:25:22.531Z,-1.51
2016-03-14T05:26:22.487Z,-1.51
2016-03-14T05:27:22.474Z,-1.45
2016-03-14T05:28:22.414Z,-1.51
2016-03-14T05:29:22.386Z,-1.6
2016-03-14T05:30:22.356Z,-1.49
2016-03-14T05:31:22.312Z,-1.51
2016-03-14T05:32:22.284Z,-1.51
2016-03-14T05:33:22.240Z,-1.62
2016-03-14T05:34:22.211Z,-1.51
2016-03-14T05:35:22.167Z,-1.56
2016-03-14T05:36:22.139Z,-1.57
2016-03-14T05:37:22.095Z,-1.6
2016-03-14T05:38:22.051Z,-1.51
2016-03-14T05:39:22.006Z,-1.53
2016-03-14T05:40:21.978Z,-1.57
2016-03-14T05:41:21.949Z,-1.54
2016-03-14T05:42:21.905Z,-1.57
2016-03-14T05:43:21.861Z,-1.45
2016-03-14T05:44:21.848Z,-1.46
2016-03-14T05:45:21.788Z,-1.49
2016-03-14T05:46:21.760Z,-1.43
2016-03-14T05:47:21.715Z,-1.49
2016-03-14T05:48:21.687Z,-1.49
2016-03-14T05:49:21.658Z,-1.57
2016-03-14T05:50:21.598Z,-1.62
2016-03-14T05:51:21.554Z,-1.59
2016-03-14T05:52:21.526Z,-1.54
2016-03-14T05:53:21.497Z,-1.49
2016-03-14T05:54:21.453Z,-1.46
2016-03-14T05:55:21.268Z,-1.48
2016-03-14T05:56:21.380Z,-1.45
2016-03-14T05:57:21.336Z,-1.45
2016-03-14T05:58:21.307Z,-1.45
2016-03-14T05:59:21.262Z,-1.48
2016-03-14T06:00:21.234Z,-1.36
2016-03-14T06:01:21.222Z,-1.53
2016-03-14T06:02:21.146Z,-1.38
2016-03-14T06:03:21.117Z,-1.33
2016-03-14T06:04:21.089Z,-1.28
2016-03-14T06:05:21.044Z,-1.33
2016-03-14T06:06:21.022Z,-1.35
2016-03-14T06:07:20.993Z,-1.33
2016-03-14T06:08:20.933Z,-1.27
2016-03-14T06:09:20.905Z,-1.24
2016-03-14T06:10:20.860Z,-1.25
2016-03-14T06:11:20.816Z,-1.21
2016-03-14T06:12:20.787Z,-1.21
2016-03-14T06:13:20.744Z,-1.21
2016-03-14T06:14:20.699Z,-1.15
2016-03-14T06:15:20.514Z,-1.09
2016-03-14T06:16:20.626Z,-1.1
2016-03-14T06:17:20.598Z,-1.1
2016-03-14T06:18:20.568Z,-1.15
2016-03-14T06:19:20.525Z,-1.13
2016-03-14T06:20:20.481Z,-1.05
2016-03-14T06:21:20.437Z,-1.05
2016-03-14T06:22:20.407Z,-1.1
2016-03-14T06:23:20.379Z,-1.05
2016-03-14T06:24:20.335Z,-1.06
2016-03-14T06:25:20.307Z,-1.06
2016-03-14T06:26:20.262Z,-0.94
2016-03-14T06:27:20.234Z,-1.05
2016-03-14T06:28:20.189Z,-0.97
2016-03-14T06:29:20.145Z,-0.99
2016-03-14T06:30:20.117Z,-1
2016-03-14T06:31:20.073Z,-1
2016-03-14T06:32:20.045Z,-0.99
2016-03-14T06:33:20.000Z,-0.95
2016-03-14T06:34:19.956Z,-0.92
2016-03-14T06:35:19.942Z,-0.99
2016-03-14T06:36:19.883Z,-0.91
2016-03-14T06:37:19.855Z,-0.97
2016-03-14T06:38:19.826Z,-0.91
2016-03-14T06:39:19.782Z,-0.89
2016-03-14T06:40:19.753Z,-0.89
2016-03-14T06:41:19.708Z,-0.81
2016-03-14T06:42:19.681Z,-0.78
2016-03-14T06:43:19.480Z,-0.8
2016-03-14T06:44:19.452Z,-0.75
2016-03-14T06:45:19.563Z,-0.69
2016-03-14T06:46:19.519Z,-0.72
2016-03-14T06:47:19.490Z,-0.65
2016-03-14T06:48:19.446Z,-0.68
2016-03-14T06:49:19.402Z,-0.65
2016-03-14T06:50:19.374Z,-0.6
2016-03-14T06:51:19.329Z,-0.55
2016-03-14T06:52:19.317Z,-0.6
2016-03-14T06:53:19.256Z,-0.59
2016-03-14T06:54:19.228Z,-0.51
2016-03-14T06:55:19.184Z,-0.51
2016-03-14T06:56:19.156Z,-0.48
2016-03-14T06:57:19.126Z,-0.47
2016-03-14T06:58:19.083Z,-0.36
2016-03-14T06:59:19.054Z,-0.39
2016-03-14T07:00:19.010Z,-0.39
2016-03-14T07:01:18.967Z,-0.27
2016-03-14T07:02:18.937Z,-0.34
2016-03-14T07:03:18.893Z,-0.24
2016-03-14T07:04:18.864Z,-0.33
2016-03-14T07:05:18.836Z,-0.26
2016-03-14T07:06:18.776Z,-0.24
2016-03-14T07:07:18.748Z,-0.15
2016-03-14T07:08:18.720Z,-0.13
2016-03-14T07:09:18.691Z,-0.08
2016-03-14T07:10:18.647Z,-0.13
2016-03-14T07:11:18.618Z,-0.01
2016-03-14T07:12:18.574Z,-0.08
2016-03-14T07:13:18.544Z,-0.04
2016-03-14T07:14:18.502Z,0.02
2016-03-14T07:15:18.457Z,0.21
2016-03-14T07:16:18.428Z,0.06
2016-03-14T07:17:18.384Z,0.12
2016-03-14T07:18:18.341Z,0.23
2016-03-14T07:19:18.327Z,0.21
2016-03-14T07:20:18.268Z,0.28
2016-03-14T07:21:18.254Z,0.39
2016-03-14T07:22:18.210Z,0.36
2016-03-14T07:23:18.165Z,0.36
2016-03-14T07:24:18.122Z,0.39
2016-03-14T07:25:18.093Z,0.43
2016-03-14T07:26:18.065Z,0.45
2016-03-14T07:27:18.051Z,0.45
2016-03-14T07:28:17.992Z,0.61
2016-03-14T07:29:17.978Z,0.6
2016-03-14T07:30:17.919Z,0.68
2016-03-14T07:31:17.906Z,0.64
2016-03-14T07:32:17.846Z,0.7
2016-03-14T07:33:17.834Z,0.8
2016-03-14T07:34:17.773Z,0.8
2016-03-14T07:35:17.745Z,0.8
2016-03-14T07:36:17.717Z,0.85
2016-03-14T07:37:17.689Z,0.85
2016-03-14T07:38:17.628Z,0.9
2016-03-14T07:39:17.599Z,0.88
2016-03-14T07:40:17.571Z,0.92
2016-03-14T07:41:17.527Z,1
2016-03-14T07:42:17.498Z,1.03
2016-03-14T07:43:17.455Z,1.01
2016-03-14T07:44:17.425Z,1.03
2016-03-14T07:45:17.397Z,1.06
2016-03-14T07:46:17.352Z,1.16
2016-03-14T07:47:17.324Z,1.14
2016-03-14T07:48:17.280Z,1.22
2016-03-14T07:49:17.252Z,1.22
2016-03-14T07:50:17.223Z,1.28
2016-03-14T07:51:17.163Z,1.34
2016-03-14T07:52:17.150Z,1.34
2016-03-14T07:53:17.107Z,1.4
2016-03-14T07:54:17.062Z,1.5
2016-03-14T07:55:17.033Z,1.46
2016-03-14T07:56:16.989Z,1.46
2016-03-14T07:57:16.960Z,1.61
2016-03-14T07:58:16.931Z,1.62
2016-03-14T07:59:16.888Z,1.58
2016-03-14T08:00:16.859Z,1.52
2016-03-14T08:01:16.831Z,1.55
2016-03-14T08:02:16.786Z,1.58
2016-03-14T08:03:16.758Z,1.69
2016-03-14T08:04:16.729Z,1.78
2016-03-14T08:05:16.685Z,1.71
2016-03-14T08:06:16.669Z,1.73
2016-03-14T08:07:16.625Z,1.83
2016-03-14T08:08:16.580Z,1.79
2016-03-14T08:09:16.537Z,1.79
2016-03-14T08:10:16.508Z,1.9
2016-03-14T08:11:16.480Z,1.94
2016-03-14T08:12:16.450Z,1.9
2016-03-14T08:13:16.407Z,1.93
2016-03-14T08:14:16.377Z,1.93
2016-03-14T08:15:16.333Z,2.02
2016-03-14T08:16:16.305Z,2.08
2016-03-14T08:17:16.261Z,2.06
2016-03-14T08:18:16.216Z,2.13
2016-03-14T08:19:16.204Z,2.15
2016-03-14T08:20:16.159Z,2.06
2016-03-14T08:21:16.146Z,2.2
2016-03-14T08:22:16.087Z,2.19
2016-03-14T08:23:16.059Z,2.23
2016-03-14T08:24:16.014Z,2.2
2016-03-14T08:25:15.985Z,2.3
2016-03-14T08:26:15.817Z,2.38
2016-03-14T08:27:19.820Z,2.3
2016-03-14T08:28:19.103Z,2.45
2016-03-14T08:29:19.309Z,2.46
2016-03-14T08:30:16.233Z,2.51
2016-03-14T08:31:16.517Z,2.49
2016-03-14T08:32:20.067Z,2.45
2016-03-14T08:33:19.648Z,2.35
2016-03-14T08:34:19.603Z,2.4
2016-03-14T08:35:19.919Z,2.46
2016-03-14T08:36:15.609Z,2.51
2016-03-14T08:37:19.377Z,2.53
2016-03-14T08:38:19.411Z,2.48
2016-03-14T08:39:18.898Z,2.59
2016-03-14T08:40:19.042Z,2.64
2016-03-14T08:41:17.811Z,2.56
2016-03-14T08:42:15.422Z,2.66
2016-03-14T08:43:15.378Z,2.69
2016-03-14T08:44:15.334Z,2.69
2016-03-14T08:45:15.305Z,2.74
2016-03-14T08:46:15.277Z,2.79
2016-03-14T08:47:15.248Z,2.87
2016-03-14T08:48:15.204Z,2.85
2016-03-14T08:49:15.160Z,2.87
2016-03-14T08:50:15.132Z,2.85
2016-03-14T08:51:15.102Z,2.76
2016-03-14T08:52:15.074Z,2.79
2016-03-14T08:53:15.030Z,2.79
2016-03-14T08:54:15.017Z,2.84
2016-03-14T08:55:14.957Z,2.77
2016-03-14T08:56:18.616Z,2.85
2016-03-14T08:57:14.900Z,2.97
2016-03-14T08:58:19.137Z,2.92
2016-03-14T08:59:18.984Z,3.07
2016-03-14T09:00:19.205Z,3.13
2016-03-14T09:01:18.582Z,3.13
2016-03-14T09:02:18.898Z,3.18
2016-03-14T09:03:18.556Z,3.16
2016-03-14T09:04:18.528Z,3.24
2016-03-14T09:05:18.593Z,3.34
2016-03-14T09:06:18.612Z,3.31
2016-03-14T09:07:18.895Z,3.39
2016-03-14T09:08:18.695Z,3.36
2016-03-14T09:09:18.010Z,3.36
2016-03-14T09:10:17.685Z,3.34
2016-03-14T09:11:14.297Z,3.46
2016-03-14T09:12:14.393Z,3.4
2016-03-14T09:13:14.380Z,3.44
2016-03-14T09:14:14.321Z,3.44
2016-03-14T09:15:14.292Z,3.53
2016-03-14T09:16:14.263Z,3.53
2016-03-14T09:17:14.219Z,3.64
2016-03-14T09:18:14.190Z,3.67
2016-03-14T09:19:14.163Z,3.68
2016-03-14T09:20:14.118Z,3.67
2016-03-14T09:21:14.090Z,3.78
2016-03-14T09:22:14.092Z,3.68
2016-03-14T09:23:14.016Z,3.76
2016-03-14T09:24:14.003Z,3.82
2016-03-14T09:25:13.976Z,3.86
2016-03-14T09:26:13.931Z,3.88
2016-03-14T09:27:13.887Z,3.85
2016-03-14T09:28:13.873Z,4.01
2016-03-14T09:29:13.829Z,4
2016-03-14T09:30:13.817Z,4.01
2016-03-14T09:31:13.772Z,4.03
2016-03-14T09:32:13.745Z,4
2016-03-14T09:33:13.700Z,4.12
2016-03-14T09:34:13.671Z,4
2016-03-14T09:35:13.627Z,4.12
2016-03-14T09:36:13.614Z,4.06
2016-03-14T09:37:13.554Z,4.14
2016-03-14T09:38:13.542Z,4.1
2016-03-14T09:39:13.341Z,4.19
2016-03-14T09:40:13.484Z,4.1
2016-03-14T09:41:13.425Z,4.24
2016-03-14T09:42:13.397Z,4.22
2016-03-14T09:43:13.367Z,4.24
2016-03-14T09:44:13.339Z,4.21
2016-03-14T09:45:13.311Z,4.24
2016-03-14T09:46:13.266Z,4.22
2016-03-14T09:47:13.238Z,4.36
2016-03-14T09:48:13.208Z,4.28
2016-03-14T09:49:13.165Z,4.22
2016-03-14T09:50:13.136Z,4.29
2016-03-14T09:51:13.107Z,4.34
2016-03-14T09:52:13.095Z,4.36
2016-03-14T09:53:13.051Z,4.39
2016-03-14T09:54:13.007Z,4.39
2016-03-14T09:55:12.977Z,4.29
2016-03-14T09:56:12.934Z,4.25
2016-03-14T09:57:12.904Z,4.36
2016-03-14T09:58:13.110Z,4.43
2016-03-14T09:59:12.848Z,4.43
2016-03-14T10:00:12.820Z,4.54
2016-03-14T10:01:12.776Z,4.43
2016-03-14T10:02:12.746Z,4.57
2016-03-14T10:03:12.718Z,4.55
2016-03-14T10:04:12.674Z,4.5
2016-03-14T10:05:12.645Z,4.52
2016-03-14T10:06:12.492Z,4.55
2016-03-14T10:07:12.597Z,4.57
2016-03-14T10:08:12.554Z,4.64
2016-03-14T10:09:12.525Z,4.67
2016-03-14T10:10:12.497Z,4.76
2016-03-14T10:11:12.452Z,4.76
2016-03-14T10:12:12.424Z,4.73
2016-03-14T10:13:12.396Z,4.77
2016-03-14T10:14:12.352Z,4.8
2016-03-14T10:15:12.354Z,4.86
2016-03-14T10:16:12.279Z,4.77
2016-03-14T10:17:12.265Z,4.83
2016-03-14T10:18:12.237Z,4.72
2016-03-14T10:19:12.208Z,4.84
2016-03-14T10:20:12.164Z,4.88
2016-03-14T10:21:12.136Z,4.94
2016-03-14T10:22:12.091Z,5.01
2016-03-14T10:23:12.063Z,4.99
2016-03-14T10:24:12.034Z,5.02
2016-03-14T10:25:12.003Z,5.02
2016-03-14T10:26:11.974Z,5.12
2016-03-14T10:27:11.931Z,5.07
2016-03-14T10:28:11.917Z,5.16
2016-03-14T10:29:11.874Z,5.12
2016-03-14T10:30:11.845Z,5.16
2016-03-14T10:31:11.817Z,5.22
2016-03-14T10:32:11.772Z,5.23
2016-03-14T10:33:11.743Z,5.27
2016-03-14T10:34:11.731Z,5.27
2016-03-14T10:35:11.687Z,5.27
2016-03-14T10:36:11.658Z,5.19
2016-03-14T10:37:11.613Z,5.28
2016-03-14T10:38:11.600Z,5.22
2016-03-14T10:39:11.556Z,5.3
2016-03-14T10:40:11.512Z,5.3
2016-03-14T10:41:11.499Z,5.32
2016-03-14T10:42:11.486Z,5.45
2016-03-14T10:43:11.442Z,5.49
2016-03-14T10:44:11.398Z,5.4
2016-03-14T10:45:11.354Z,5.48
2016-03-14T10:46:11.341Z,5.53
2016-03-14T10:47:11.297Z,5.6
2016-03-14T10:48:11.283Z,5.56
2016-03-14T10:49:11.240Z,5.59
2016-03-14T10:50:11.211Z,5.73
2016-03-14T10:51:11.182Z,5.67
2016-03-14T10:52:11.154Z,5.82
2016-03-14T10:53:11.125Z,5.83
2016-03-14T10:54:11.081Z,5.85
2016-03-14T10:55:11.052Z,6.01
2016-03-14T10:56:11.023Z,5.96
2016-03-14T10:57:10.996Z,6.1
2016-03-14T10:58:10.951Z,6.11
2016-03-14T10:59:10.923Z,6.1
2016-03-14T11:00:10.894Z,6.18
2016-03-14T11:01:10.866Z,6.25
2016-03-14T11:02:10.838Z,6.35
2016-03-14T11:03:10.809Z,6.36
2016-03-14T11:04:10.765Z,6.33
2016-03-14T11:05:10.752Z,6.35
2016-03-14T11:06:10.724Z,6.47
2016-03-14T11:07:10.679Z,6.36
2016-03-14T11:08:10.635Z,6.48
2016-03-14T11:09:10.638Z,6.4
2016-03-14T11:10:10.578Z,6.61
2016-03-14T11:11:10.565Z,6.62
2016-03-14T11:12:10.536Z,6.56
2016-03-14T11:13:10.492Z,6.56
2016-03-14T11:14:10.464Z,6.63
2016-03-14T11:15:10.436Z,6.62
2016-03-14T11:16:10.423Z,6.56
2016-03-14T11:17:10.378Z,6.53
2016-03-14T11:18:10.334Z,6.58
2016-03-14T11:19:10.305Z,6.59
2016-03-14T11:20:10.277Z,6.61
2016-03-14T11:21:10.248Z,6.61
2016-03-14T11:22:10.223Z,6.72
2016-03-14T11:23:10.194Z,6.66
2016-03-14T11:24:10.149Z,6.72
2016-03-14T11:25:10.121Z,6.71
2016-03-14T11:26:10.108Z,6.72
2016-03-14T11:27:10.080Z,6.81
2016-03-14T11:28:10.035Z,6.73
2016-03-14T11:29:10.022Z,6.8
2016-03-14T11:30:09.963Z,6.76
2016-03-14T11:31:09.934Z,6.79
2016-03-14T11:32:09.750Z,6.71
2016-03-14T11:33:09.877Z,6.8
2016-03-14T11:34:09.849Z,6.76
2016-03-14T11:35:09.836Z,6.8
2016-03-14T11:36:09.791Z,6.76
2016-03-14T11:37:09.763Z,6.84
2016-03-14T11:38:09.734Z,6.81
2016-03-14T11:39:09.690Z,6.76
2016-03-14T11:40:09.677Z,6.72
2016-03-14T11:41:09.648Z,6.76
2016-03-14T11:42:09.605Z,6.83
2016-03-14T11:43:09.576Z,6.81
2016-03-14T11:44:09.547Z,6.79
2016-03-14T11:45:09.519Z,6.83
2016-03-14T11:46:09.475Z,6.94
2016-03-14T11:47:09.493Z,7.04
2016-03-14T11:48:09.417Z,6.98
2016-03-14T11:49:09.389Z,6.97
2016-03-14T11:50:09.361Z,7.05
2016-03-14T11:51:09.332Z,7.09
2016-03-14T11:52:09.334Z,7.15
2016-03-14T11:53:08.978Z,7.24
2016-03-14T11:54:09.246Z,7.24
2016-03-14T11:55:09.195Z,7.2
2016-03-14T11:56:09.173Z,7.27
2016-03-14T11:57:09.118Z,7.29
2016-03-14T11:58:09.080Z,7.31
2016-03-14T11:59:09.048Z,7.38
2016-03-14T12:00:08.998Z,7.35
2016-03-14T12:01:08.981Z,7.52
2016-03-14T12:02:08.949Z,7.58
2016-03-14T12:03:08.901Z,7.55
2016-03-14T12:04:08.884Z,7.55
2016-03-14T12:05:08.839Z,7.53
2016-03-14T12:06:08.652Z,7.55
2016-03-14T12:07:08.779Z,7.53
2016-03-14T12:08:08.750Z,7.62
2016-03-14T12:09:08.720Z,7.55
2016-03-14T12:10:08.690Z,7.59
2016-03-14T12:11:08.662Z,7.69
2016-03-14T12:12:08.617Z,7.75
2016-03-14T12:13:08.605Z,7.74
2016-03-14T12:14:08.574Z,7.79
2016-03-14T12:15:08.546Z,7.82
2016-03-14T12:16:08.517Z,7.89
2016-03-14T12:17:08.489Z,7.85
2016-03-14T12:18:08.444Z,7.93
2016-03-14T12:19:08.430Z,8.02
2016-03-14T12:20:08.386Z,8.07
2016-03-14T12:21:08.357Z,7.99
2016-03-14T12:22:08.329Z,7.94
2016-03-14T12:23:08.299Z,8.02
2016-03-14T12:24:08.272Z,8.14
2016-03-14T12:25:08.243Z,8.03
2016-03-14T12:26:08.215Z,8.15
2016-03-14T12:27:08.185Z,8.11
2016-03-14T12:28:08.157Z,8.21
2016-03-14T12:29:08.128Z,8.22
2016-03-14T12:30:08.101Z,8.25
2016-03-14T12:31:08.072Z,8.21
2016-03-14T12:32:08.059Z,8.18
2016-03-14T12:33:07.999Z,8.22
2016-03-14T12:34:07.970Z,8.32
2016-03-14T12:35:07.957Z,8.3
2016-03-14T12:36:07.913Z,8.42
2016-03-14T12:37:07.885Z,8.36
2016-03-14T12:38:07.872Z,8.35
2016-03-14T12:39:07.828Z,8.37
2016-03-14T12:40:07.800Z,8.48
2016-03-14T12:41:07.771Z,8.5
2016-03-14T12:42:07.742Z,8.48
2016-03-14T12:43:07.714Z,8.48
2016-03-14T12:44:07.685Z,8.57
2016-03-14T12:45:07.656Z,8.6
2016-03-14T12:46:07.627Z,8.54
2016-03-14T12:47:07.599Z,8.53
2016-03-14T12:48:07.571Z,8.54
2016-03-14T12:49:07.541Z,8.57
2016-03-14T12:50:07.513Z,8.53
2016-03-14T12:51:07.485Z,8.6
2016-03-14T12:52:07.441Z,8.57
2016-03-14T12:53:07.427Z,8.58
2016-03-14T12:54:07.400Z,8.58
2016-03-14T12:55:07.371Z,8.62
2016-03-14T12:56:07.342Z,8.63
2016-03-14T12:57:07.314Z,8.54
2016-03-14T12:58:07.269Z,8.63
2016-03-14T12:59:07.272Z,8.69
2016-03-14T13:00:07.228Z,8.63
2016-03-14T13:01:07.199Z,8.69
2016-03-14T13:02:07.170Z,8.78
2016-03-14T13:03:07.142Z,8.83
2016-03-14T13:04:07.114Z,8.76
2016-03-14T13:05:07.069Z,8.84
2016-03-14T13:06:07.040Z,8.84
2016-03-14T13:07:07.059Z,8.76
2016-03-14T13:08:06.999Z,8.9
2016-03-14T13:09:06.971Z,8.84
2016-03-14T13:10:06.926Z,8.94
2016-03-14T13:11:06.898Z,8.76
2016-03-14T13:12:06.901Z,8.79
2016-03-14T13:13:06.856Z,8.86